sensor_id;sensor_type;location;lat;lon;timestamp;temperature;humidity
1391;DHT22;690;51.454;7.194;2022-12-11T00:00:36;2.80;1.00
1391;DHT22;690;51.454;7.194;2022-12-11T00:03:03;2.90;1.00
1391;DHT22;690;51.454;7.194;2022-12-11T00:05:31;2.90;1.00
1391;DHT22;690;51.454;7.194;2022-12-11T00:07:58;2.80;1.00
1391;DHT22;690;51.454;7.194;2022-12-11T00:10:26;2.80;1.00
1391;DHT22;690;51.454;7.194;2022-12-11T00:12:53;2.80;99.90
1391;DHT22;690;51.454;7.194;2022-12-11T00:15:20;2.70;99.90
1391;DHT22;690;51.454;7.194;2022-12-11T00:17:47;2.70;1.00
1391;DHT22;690;51.454;7.194;2022-12-11T00:20:13;2.70;1.00
1391;DHT22;690;51.454;7.194;2022-12-11T00:22:41;2.60;1.00
1391;DHT22;690;51.454;7.194;2022-12-11T00:25:08;2.60;1.00
1391;DHT22;690;51.454;7.194;2022-12-11T00:27:36;2.50;1.00
1391;DHT22;690;51.454;7.194;2022-12-11T00:30:05;2.50;1.00
1391;DHT22;690;51.454;7.194;2022-12-11T00:32:32;2.50;1.00
1391;DHT22;690;51.454;7.194;2022-12-11T00:34:59;2.50;1.00
1391;DHT22;690;51.454;7.194;2022-12-11T00:37:27;2.50;1.00
1391;DHT22;690;51.454;7.194;2022-12-11T00:39:53;2.50;1.00
1391;DHT22;690;51.454;7.194;2022-12-11T00:42:20;2.50;1.00
1391;DHT22;690;51.454;7.194;2022-12-11T00:44:48;2.50;1.00
1391;DHT22;690;51.454;7.194;2022-12-11T00:47:15;2.50;1.00
1391;DHT22;690;51.454;7.194;2022-12-11T00:49:42;2.60;1.00
1391;DHT22;690;51.454;7.194;2022-12-11T00:52:09;2.50;1.00
1391;DHT22;690;51.454;7.194;2022-12-11T00:54:36;2.40;1.00
1391;DHT22;690;51.454;7.194;2022-12-11T00:57:03;2.40;1.00
1391;DHT22;690;51.454;7.194;2022-12-11T00:59:30;2.40;1.00
1391;DHT22;690;51.454;7.194;2022-12-11T01:01:58;2.40;1.00
1391;DHT22;690;51.454;7.194;2022-12-11T01:04:25;2.40;1.00
1391;DHT22;690;51.454;7.194;2022-12-11T01:06:52;2.50;48.90
1391;DHT22;690;51.454;7.194;2022-12-11T01:09:18;2.60;99.90
1391;DHT22;690;51.454;7.194;2022-12-11T01:12:03;2.60;99.90
1391;DHT22;690;51.454;7.194;2022-12-11T01:14:30;2.60;99.90
1391;DHT22;690;51.454;7.194;2022-12-11T01:16:58;2.70;99.90
1391;DHT22;690;51.454;7.194;2022-12-11T01:19:25;2.70;95.70
1391;DHT22;690;51.454;7.194;2022-12-11T01:21:53;2.80;99.90
1391;DHT22;690;51.454;7.194;2022-12-11T01:24:19;2.80;99.90
1391;DHT22;690;51.454;7.194;2022-12-11T01:26:46;2.90;96.80
1391;DHT22;690;51.454;7.194;2022-12-11T01:29:14;2.90;10.80
1391;DHT22;690;51.454;7.194;2022-12-11T01:31:41;2.90;1.00
1391;DHT22;690;51.454;7.194;2022-12-11T01:34:09;2.90;1.00
1391;DHT22;690;51.454;7.194;2022-12-11T01:36:36;2.90;1.00
1391;DHT22;690;51.454;7.194;2022-12-11T01:39:03;2.90;1.00
1391;DHT22;690;51.454;7.194;2022-12-11T01:41:30;2.90;78.10
1391;DHT22;690;51.454;7.194;2022-12-11T01:44:00;2.90;99.90
1391;DHT22;690;51.454;7.194;2022-12-11T01:46:28;2.90;90.80
1391;DHT22;690;51.454;7.194;2022-12-11T01:48:56;2.90;99.90
1391;DHT22;690;51.454;7.194;2022-12-11T01:51:25;2.90;99.90
1391;DHT22;690;51.454;7.194;2022-12-11T01:53:54;3.00;99.90
1391;DHT22;690;51.454;7.194;2022-12-11T01:56:24;3.00;99.90
1391;DHT22;690;51.454;7.194;2022-12-11T01:58:56;3.00;99.90
1391;DHT22;690;51.454;7.194;2022-12-11T02:01:33;3.00;99.90
1391;DHT22;690;51.454;7.194;2022-12-11T02:04:01;3.00;76.50
1391;DHT22;690;51.454;7.194;2022-12-11T02:06:35;3.00;99.90
1391;DHT22;690;51.454;7.194;2022-12-11T02:09:06;3.00;99.90
1391;DHT22;690;51.454;7.194;2022-12-11T02:11:48;3.00;99.90
1391;DHT22;690;51.454;7.194;2022-12-11T02:14:27;3.00;99.90
1391;DHT22;690;51.454;7.194;2022-12-11T02:16:58;3.00;99.90
1391;DHT22;690;51.454;7.194;2022-12-11T02:19:40;3.00;99.90
1391;DHT22;690;51.454;7.194;2022-12-11T02:22:16;3.00;99.90
1391;DHT22;690;51.454;7.194;2022-12-11T02:24:56;3.00;99.90
1391;DHT22;690;51.454;7.194;2022-12-11T02:27:30;3.00;99.90
1391;DHT22;690;51.454;7.194;2022-12-11T02:30:03;3.00;99.90
1391;DHT22;690;51.454;7.194;2022-12-11T02:32:36;3.00;1.00
1391;DHT22;690;51.454;7.194;2022-12-11T02:35:09;3.10;1.00
1391;DHT22;690;51.454;7.194;2022-12-11T02:37:38;3.10;99.90
1391;DHT22;690;51.454;7.194;2022-12-11T02:40:10;3.10;99.90
1391;DHT22;690;51.454;7.194;2022-12-11T02:42:40;3.10;1.00
1391;DHT22;690;51.454;7.194;2022-12-11T02:45:11;3.10;1.00
1391;DHT22;690;51.454;7.194;2022-12-11T02:47:40;3.10;1.00
1391;DHT22;690;51.454;7.194;2022-12-11T02:50:13;3.10;1.00
1391;DHT22;690;51.454;7.194;2022-12-11T02:52:42;3.10;1.00
1391;DHT22;690;51.454;7.194;2022-12-11T02:55:13;3.20;1.00
1391;DHT22;690;51.454;7.194;2022-12-11T02:57:44;3.20;1.00
1391;DHT22;690;51.454;7.194;2022-12-11T03:00:15;3.20;1.00
1391;DHT22;690;51.454;7.194;2022-12-11T03:02:43;3.20;1.00
1391;DHT22;690;51.454;7.194;2022-12-11T03:05:11;3.20;99.90
1391;DHT22;690;51.454;7.194;2022-12-11T03:07:41;3.20;1.00
1391;DHT22;690;51.454;7.194;2022-12-11T03:10:11;3.20;1.00
1391;DHT22;690;51.454;7.194;2022-12-11T03:12:42;3.30;1.00
1391;DHT22;690;51.454;7.194;2022-12-11T03:15:14;3.30;1.00
1391;DHT22;690;51.454;7.194;2022-12-11T03:17:55;3.30;1.00
1391;DHT22;690;51.454;7.194;2022-12-11T03:20:30;3.30;1.00
1391;DHT22;690;51.454;7.194;2022-12-11T03:23:05;3.30;99.90
1391;DHT22;690;51.454;7.194;2022-12-11T03:25:42;3.30;1.00
1391;DHT22;690;51.454;7.194;2022-12-11T03:28:13;3.30;1.00
1391;DHT22;690;51.454;7.194;2022-12-11T03:30:43;3.30;1.00
1391;DHT22;690;51.454;7.194;2022-12-11T03:33:14;3.30;1.00
1391;DHT22;690;51.454;7.194;2022-12-11T03:35:48;3.30;1.00
1391;DHT22;690;51.454;7.194;2022-12-11T03:38:20;3.30;1.00
1391;DHT22;690;51.454;7.194;2022-12-11T03:40:51;3.30;1.00
1391;DHT22;690;51.454;7.194;2022-12-11T03:43:20;3.30;1.00
1391;DHT22;690;51.454;7.194;2022-12-11T03:45:51;3.30;1.00
1391;DHT22;690;51.454;7.194;2022-12-11T03:48:20;3.30;1.00
1391;DHT22;690;51.454;7.194;2022-12-11T03:50:48;3.30;1.00
1391;DHT22;690;51.454;7.194;2022-12-11T03:53:15;3.30;1.00
1391;DHT22;690;51.454;7.194;2022-12-11T03:55:44;3.30;1.00
1391;DHT22;690;51.454;7.194;2022-12-11T03:58:11;3.30;1.00
1391;DHT22;690;51.454;7.194;2022-12-11T04:00:38;3.30;1.00
1391;DHT22;690;51.454;7.194;2022-12-11T04:03:06;3.30;1.00
1391;DHT22;690;51.454;7.194;2022-12-11T04:05:40;3.30;1.00
1391;DHT22;690;51.454;7.194;2022-12-11T04:08:08;3.30;1.00
1391;DHT22;690;51.454;7.194;2022-12-11T04:10:35;3.30;1.00
1391;DHT22;690;51.454;7.194;2022-12-11T04:13:02;3.30;1.00
1391;DHT22;690;51.454;7.194;2022-12-11T04:15:29;3.30;1.00
1391;DHT22;690;51.454;7.194;2022-12-11T04:17:55;3.30;1.00
1391;DHT22;690;51.454;7.194;2022-12-11T04:20:40;3.40;1.00
1391;DHT22;690;51.454;7.194;2022-12-11T04:23:25;3.30;1.00
1391;DHT22;690;51.454;7.194;2022-12-11T04:26:11;3.30;1.00
1391;DHT22;690;51.454;7.194;2022-12-11T04:28:40;3.30;1.00
1391;DHT22;690;51.454;7.194;2022-12-11T04:31:10;3.40;1.00
1391;DHT22;690;51.454;7.194;2022-12-11T04:33:37;3.40;1.00
1391;DHT22;690;51.454;7.194;2022-12-11T04:36:06;3.40;1.00
1391;DHT22;690;51.454;7.194;2022-12-11T04:38:33;3.40;1.00
1391;DHT22;690;51.454;7.194;2022-12-11T04:41:02;3.40;1.00
1391;DHT22;690;51.454;7.194;2022-12-11T04:43:30;3.40;1.00
1391;DHT22;690;51.454;7.194;2022-12-11T04:46:01;3.40;1.00
1391;DHT22;690;51.454;7.194;2022-12-11T04:48:28;3.50;1.00
1391;DHT22;690;51.454;7.194;2022-12-11T04:50:55;3.50;1.00
1391;DHT22;690;51.454;7.194;2022-12-11T04:53:23;3.50;1.00
1391;DHT22;690;51.454;7.194;2022-12-11T04:55:51;3.50;99.90
1391;DHT22;690;51.454;7.194;2022-12-11T04:58:17;3.50;99.90
1391;DHT22;690;51.454;7.194;2022-12-11T05:00:44;3.60;99.90
1391;DHT22;690;51.454;7.194;2022-12-11T05:03:11;3.60;99.90
1391;DHT22;690;51.454;7.194;2022-12-11T05:05:38;3.60;99.90
1391;DHT22;690;51.454;7.194;2022-12-11T05:08:05;3.60;99.90
1391;DHT22;690;51.454;7.194;2022-12-11T05:10:34;3.60;99.90
1391;DHT22;690;51.454;7.194;2022-12-11T05:13:00;3.60;99.90
1391;DHT22;690;51.454;7.194;2022-12-11T05:15:28;3.60;99.90
1391;DHT22;690;51.454;7.194;2022-12-11T05:17:54;3.60;99.90
1391;DHT22;690;51.454;7.194;2022-12-11T05:20:22;3.60;99.90
1391;DHT22;690;51.454;7.194;2022-12-11T05:22:49;3.60;99.90
1391;DHT22;690;51.454;7.194;2022-12-11T05:25:16;3.60;99.90
1391;DHT22;690;51.454;7.194;2022-12-11T05:27:44;3.60;99.90
1391;DHT22;690;51.454;7.194;2022-12-11T05:30:11;3.70;99.90
1391;DHT22;690;51.454;7.194;2022-12-11T05:32:38;3.70;99.90
1391;DHT22;690;51.454;7.194;2022-12-11T05:35:05;3.70;99.90
1391;DHT22;690;51.454;7.194;2022-12-11T05:37:32;3.70;99.90
1391;DHT22;690;51.454;7.194;2022-12-11T05:40:00;3.70;99.90
1391;DHT22;690;51.454;7.194;2022-12-11T05:42:26;3.70;99.90
1391;DHT22;690;51.454;7.194;2022-12-11T05:44:55;3.70;99.90
1391;DHT22;690;51.454;7.194;2022-12-11T05:47:22;3.70;99.90
1391;DHT22;690;51.454;7.194;2022-12-11T05:49:48;3.80;99.90
1391;DHT22;690;51.454;7.194;2022-12-11T05:52:15;3.80;99.90
1391;DHT22;690;51.454;7.194;2022-12-11T05:54:42;3.80;99.90
1391;DHT22;690;51.454;7.194;2022-12-11T05:57:09;3.80;99.90
1391;DHT22;690;51.454;7.194;2022-12-11T05:59:36;3.80;99.90
1391;DHT22;690;51.454;7.194;2022-12-11T06:02:04;3.80;99.90
1391;DHT22;690;51.454;7.194;2022-12-11T06:04:31;3.80;26.20
1391;DHT22;690;51.454;7.194;2022-12-11T06:06:58;3.80;30.60
1391;DHT22;690;51.454;7.194;2022-12-11T06:09:25;3.80;78.30
1391;DHT22;690;51.454;7.194;2022-12-11T06:11:52;3.80;52.80
1391;DHT22;690;51.454;7.194;2022-12-11T06:14:19;3.80;74.20
1391;DHT22;690;51.454;7.194;2022-12-11T06:16:46;3.80;61.20
1391;DHT22;690;51.454;7.194;2022-12-11T06:19:14;3.80;66.30
1391;DHT22;690;51.454;7.194;2022-12-11T06:21:43;3.80;42.50
1391;DHT22;690;51.454;7.194;2022-12-11T06:24:11;3.80;79.60
1391;DHT22;690;51.454;7.194;2022-12-11T06:26:38;3.80;60.40
1391;DHT22;690;51.454;7.194;2022-12-11T06:29:05;3.90;33.60
1391;DHT22;690;51.454;7.194;2022-12-11T06:31:32;3.90;1.90
1391;DHT22;690;51.454;7.194;2022-12-11T06:33:59;3.90;1.00
1391;DHT22;690;51.454;7.194;2022-12-11T06:36:27;3.90;1.00
1391;DHT22;690;51.454;7.194;2022-12-11T06:38:54;3.90;1.00
1391;DHT22;690;51.454;7.194;2022-12-11T06:41:21;3.90;1.00
1391;DHT22;690;51.454;7.194;2022-12-11T06:43:48;3.90;1.00
1391;DHT22;690;51.454;7.194;2022-12-11T06:46:16;3.90;1.00
1391;DHT22;690;51.454;7.194;2022-12-11T06:48:43;3.90;1.00
1391;DHT22;690;51.454;7.194;2022-12-11T06:51:12;3.90;1.00
1391;DHT22;690;51.454;7.194;2022-12-11T06:53:41;3.90;1.00
1391;DHT22;690;51.454;7.194;2022-12-11T06:56:11;3.90;1.00
1391;DHT22;690;51.454;7.194;2022-12-11T06:58:39;3.90;1.00
1391;DHT22;690;51.454;7.194;2022-12-11T07:01:13;3.90;1.00
1391;DHT22;690;51.454;7.194;2022-12-11T07:03:41;3.90;1.00
1391;DHT22;690;51.454;7.194;2022-12-11T07:06:07;3.90;1.00
1391;DHT22;690;51.454;7.194;2022-12-11T07:08:34;3.90;1.00
1391;DHT22;690;51.454;7.194;2022-12-11T07:11:04;3.90;1.00
1391;DHT22;690;51.454;7.194;2022-12-11T07:13:32;3.90;1.00
1391;DHT22;690;51.454;7.194;2022-12-11T07:16:00;3.90;1.00
1391;DHT22;690;51.454;7.194;2022-12-11T07:18:29;3.90;1.00
1391;DHT22;690;51.454;7.194;2022-12-11T07:20:57;3.90;1.00
1391;DHT22;690;51.454;7.194;2022-12-11T07:23:25;3.90;1.00
1391;DHT22;690;51.454;7.194;2022-12-11T07:25:52;3.90;1.00
1391;DHT22;690;51.454;7.194;2022-12-11T07:28:21;3.90;1.00
1391;DHT22;690;51.454;7.194;2022-12-11T07:30:47;3.90;1.00
1391;DHT22;690;51.454;7.194;2022-12-11T07:33:14;3.90;1.00
1391;DHT22;690;51.454;7.194;2022-12-11T07:35:41;4.00;1.00
1391;DHT22;690;51.454;7.194;2022-12-11T07:38:08;3.90;1.00
1391;DHT22;690;51.454;7.194;2022-12-11T07:40:35;3.90;1.00
1391;DHT22;690;51.454;7.194;2022-12-11T07:43:02;3.90;1.00
1391;DHT22;690;51.454;7.194;2022-12-11T07:45:30;3.90;1.00
1391;DHT22;690;51.454;7.194;2022-12-11T07:47:57;3.80;1.00
1391;DHT22;690;51.454;7.194;2022-12-11T07:50:24;3.90;1.00
1391;DHT22;690;51.454;7.194;2022-12-11T07:52:51;3.80;1.00
1391;DHT22;690;51.454;7.194;2022-12-11T07:55:18;3.80;1.00
1391;DHT22;690;51.454;7.194;2022-12-11T07:57:45;3.90;1.00
1391;DHT22;690;51.454;7.194;2022-12-11T08:00:12;3.90;1.00
1391;DHT22;690;51.454;7.194;2022-12-11T08:02:40;3.90;1.00
1391;DHT22;690;51.454;7.194;2022-12-11T08:05:08;3.90;1.00
1391;DHT22;690;51.454;7.194;2022-12-11T08:07:35;4.00;1.00
1391;DHT22;690;51.454;7.194;2022-12-11T08:10:03;4.00;1.00
1391;DHT22;690;51.454;7.194;2022-12-11T08:12:30;4.00;1.00
1391;DHT22;690;51.454;7.194;2022-12-11T08:14:57;4.00;1.00
1391;DHT22;690;51.454;7.194;2022-12-11T08:17:24;4.00;1.00
1391;DHT22;690;51.454;7.194;2022-12-11T08:19:52;4.00;1.00
1391;DHT22;690;51.454;7.194;2022-12-11T08:22:19;4.00;1.00
1391;DHT22;690;51.454;7.194;2022-12-11T08:24:46;4.00;1.00
1391;DHT22;690;51.454;7.194;2022-12-11T08:27:13;4.00;1.00
1391;DHT22;690;51.454;7.194;2022-12-11T08:29:40;4.00;1.00
1391;DHT22;690;51.454;7.194;2022-12-11T08:32:07;4.00;1.00
1391;DHT22;690;51.454;7.194;2022-12-11T08:34:34;4.00;1.00
1391;DHT22;690;51.454;7.194;2022-12-11T08:37:02;4.00;1.00
1391;DHT22;690;51.454;7.194;2022-12-11T08:39:29;4.00;1.00
1391;DHT22;690;51.454;7.194;2022-12-11T08:41:56;4.00;1.00
1391;DHT22;690;51.454;7.194;2022-12-11T08:44:23;4.10;1.00
1391;DHT22;690;51.454;7.194;2022-12-11T08:46:51;4.10;1.00
1391;DHT22;690;51.454;7.194;2022-12-11T08:49:18;4.10;1.00
1391;DHT22;690;51.454;7.194;2022-12-11T08:51:45;4.10;1.00
1391;DHT22;690;51.454;7.194;2022-12-11T08:54:14;4.10;1.00
1391;DHT22;690;51.454;7.194;2022-12-11T08:56:40;4.10;1.00
1391;DHT22;690;51.454;7.194;2022-12-11T08:59:07;4.10;1.00
1391;DHT22;690;51.454;7.194;2022-12-11T09:01:34;4.10;1.00
1391;DHT22;690;51.454;7.194;2022-12-11T09:04:01;4.10;1.00
1391;DHT22;690;51.454;7.194;2022-12-11T09:06:29;4.10;1.00
1391;DHT22;690;51.454;7.194;2022-12-11T09:08:59;4.10;1.00
1391;DHT22;690;51.454;7.194;2022-12-11T09:11:29;4.10;1.00
1391;DHT22;690;51.454;7.194;2022-12-11T09:13:57;4.10;1.00
1391;DHT22;690;51.454;7.194;2022-12-11T09:16:25;4.20;1.00
1391;DHT22;690;51.454;7.194;2022-12-11T09:18:54;4.20;1.00
1391;DHT22;690;51.454;7.194;2022-12-11T09:21:23;4.20;99.90
1391;DHT22;690;51.454;7.194;2022-12-11T09:23:52;4.20;99.90
1391;DHT22;690;51.454;7.194;2022-12-11T09:26:20;4.20;99.90
1391;DHT22;690;51.454;7.194;2022-12-11T09:28:49;4.20;99.90
1391;DHT22;690;51.454;7.194;2022-12-11T09:31:19;4.20;99.90
1391;DHT22;690;51.454;7.194;2022-12-11T09:33:48;4.20;99.90
1391;DHT22;690;51.454;7.194;2022-12-11T09:36:16;4.20;99.90
1391;DHT22;690;51.454;7.194;2022-12-11T09:38:45;4.20;99.90
1391;DHT22;690;51.454;7.194;2022-12-11T09:41:37;4.20;99.90
1391;DHT22;690;51.454;7.194;2022-12-11T09:44:36;4.30;99.90
1391;DHT22;690;51.454;7.194;2022-12-11T09:47:18;4.20;99.90
1391;DHT22;690;51.454;7.194;2022-12-11T09:49:48;4.30;99.90
1391;DHT22;690;51.454;7.194;2022-12-11T09:52:18;4.30;99.90
1391;DHT22;690;51.454;7.194;2022-12-11T09:54:49;4.30;99.90
1391;DHT22;690;51.454;7.194;2022-12-11T09:57:34;4.30;99.90
1391;DHT22;690;51.454;7.194;2022-12-11T10:00:17;4.30;99.90
1391;DHT22;690;51.454;7.194;2022-12-11T10:05:48;4.30;99.90
1391;DHT22;690;51.454;7.194;2022-12-11T10:08:21;4.30;99.90
1391;DHT22;690;51.454;7.194;2022-12-11T10:10:56;4.30;99.90
1391;DHT22;690;51.454;7.194;2022-12-11T10:13:32;4.30;99.90
1391;DHT22;690;51.454;7.194;2022-12-11T10:16:07;4.30;99.90
1391;DHT22;690;51.454;7.194;2022-12-11T10:18:35;4.30;99.90
1391;DHT22;690;51.454;7.194;2022-12-11T10:21:03;4.30;99.90
1391;DHT22;690;51.454;7.194;2022-12-11T10:23:35;4.40;99.90
1391;DHT22;690;51.454;7.194;2022-12-11T10:26:08;4.30;99.90
1391;DHT22;690;51.454;7.194;2022-12-11T10:28:36;4.30;99.90
1391;DHT22;690;51.454;7.194;2022-12-11T10:31:11;4.40;99.90
1391;DHT22;690;51.454;7.194;2022-12-11T10:33:48;4.40;99.90
1391;DHT22;690;51.454;7.194;2022-12-11T10:36:25;4.40;99.90
1391;DHT22;690;51.454;7.194;2022-12-11T10:38:52;4.40;99.90
1391;DHT22;690;51.454;7.194;2022-12-11T10:41:22;4.40;99.90
1391;DHT22;690;51.454;7.194;2022-12-11T10:43:51;4.40;99.90
1391;DHT22;690;51.454;7.194;2022-12-11T10:46:22;4.40;99.90
1391;DHT22;690;51.454;7.194;2022-12-11T10:48:51;4.40;99.90
1391;DHT22;690;51.454;7.194;2022-12-11T10:51:23;4.40;99.90
1391;DHT22;690;51.454;7.194;2022-12-11T10:53:51;4.40;99.90
1391;DHT22;690;51.454;7.194;2022-12-11T10:56:25;4.40;99.90
1391;DHT22;690;51.454;7.194;2022-12-11T10:58:54;4.50;99.90
1391;DHT22;690;51.454;7.194;2022-12-11T11:01:24;4.50;99.90
1391;DHT22;690;51.454;7.194;2022-12-11T11:03:56;4.50;99.90
1391;DHT22;690;51.454;7.194;2022-12-11T11:06:24;4.50;99.90
1391;DHT22;690;51.454;7.194;2022-12-11T11:08:52;4.50;99.90
1391;DHT22;690;51.454;7.194;2022-12-11T11:11:23;4.50;99.90
1391;DHT22;690;51.454;7.194;2022-12-11T11:13:50;4.50;99.90
1391;DHT22;690;51.454;7.194;2022-12-11T11:16:20;4.50;99.90
1391;DHT22;690;51.454;7.194;2022-12-11T11:18:54;4.50;99.90
1391;DHT22;690;51.454;7.194;2022-12-11T11:21:23;4.50;99.90
1391;DHT22;690;51.454;7.194;2022-12-11T11:23:52;4.50;99.90
1391;DHT22;690;51.454;7.194;2022-12-11T11:26:20;4.50;99.90
1391;DHT22;690;51.454;7.194;2022-12-11T11:28:50;4.50;99.90
1391;DHT22;690;51.454;7.194;2022-12-11T11:31:18;4.50;99.90
1391;DHT22;690;51.454;7.194;2022-12-11T11:33:54;4.50;99.90
1391;DHT22;690;51.454;7.194;2022-12-11T11:36:23;4.40;99.90
1391;DHT22;690;51.454;7.194;2022-12-11T11:39:02;4.40;99.90
1391;DHT22;690;51.454;7.194;2022-12-11T11:41:36;4.50;99.90
1391;DHT22;690;51.454;7.194;2022-12-11T11:44:05;4.50;99.90
1391;DHT22;690;51.454;7.194;2022-12-11T11:46:37;4.40;99.90
1391;DHT22;690;51.454;7.194;2022-12-11T11:49:12;4.40;99.90
1391;DHT22;690;51.454;7.194;2022-12-11T11:51:45;4.40;99.90
1391;DHT22;690;51.454;7.194;2022-12-11T11:54:23;4.50;99.90
1391;DHT22;690;51.454;7.194;2022-12-11T11:56:52;4.50;99.90
1391;DHT22;690;51.454;7.194;2022-12-11T11:59:23;4.50;99.90
1391;DHT22;690;51.454;7.194;2022-12-11T12:01:55;4.50;99.90
1391;DHT22;690;51.454;7.194;2022-12-11T12:04:26;4.50;99.90
1391;DHT22;690;51.454;7.194;2022-12-11T12:07:18;4.40;99.90
1391;DHT22;690;51.454;7.194;2022-12-11T12:09:55;4.50;99.90
1391;DHT22;690;51.454;7.194;2022-12-11T12:12:34;4.50;99.90
1391;DHT22;690;51.454;7.194;2022-12-11T12:15:25;4.50;99.90
1391;DHT22;690;51.454;7.194;2022-12-11T12:17:57;4.50;94.80
1391;DHT22;690;51.454;7.194;2022-12-11T12:20:36;4.50;76.10
1391;DHT22;690;51.454;7.194;2022-12-11T12:23:32;4.50;67.90
1391;DHT22;690;51.454;7.194;2022-12-11T12:26:06;4.50;70.10
1391;DHT22;690;51.454;7.194;2022-12-11T12:28:39;4.50;71.70
1391;DHT22;690;51.454;7.194;2022-12-11T12:31:21;4.50;73.50
1391;DHT22;690;51.454;7.194;2022-12-11T12:33:58;4.50;69.40
1391;DHT22;690;51.454;7.194;2022-12-11T12:36:32;4.50;57.80
1391;DHT22;690;51.454;7.194;2022-12-11T12:39:12;4.50;49.60
1391;DHT22;690;51.454;7.194;2022-12-11T12:41:47;4.60;56.50
1391;DHT22;690;51.454;7.194;2022-12-11T12:44:19;4.60;63.60
1391;DHT22;690;51.454;7.194;2022-12-11T12:46:56;4.60;58.20
1391;DHT22;690;51.454;7.194;2022-12-11T12:49:32;4.60;48.60
1391;DHT22;690;51.454;7.194;2022-12-11T12:52:02;4.60;45.90
1391;DHT22;690;51.454;7.194;2022-12-11T12:54:31;4.60;32.60
1391;DHT22;690;51.454;7.194;2022-12-11T12:57:02;4.60;24.80
1391;DHT22;690;51.454;7.194;2022-12-11T12:59:29;4.70;9.50
1391;DHT22;690;51.454;7.194;2022-12-11T13:01:58;4.60;2.80
1391;DHT22;690;51.454;7.194;2022-12-11T13:04:38;4.60;15.40
1391;DHT22;690;51.454;7.194;2022-12-11T13:07:28;4.60;14.50
1391;DHT22;690;51.454;7.194;2022-12-11T13:10:03;4.60;11.00
1391;DHT22;690;51.454;7.194;2022-12-11T13:12:33;4.60;7.10
1391;DHT22;690;51.454;7.194;2022-12-11T13:15:21;4.60;3.60
1391;DHT22;690;51.454;7.194;2022-12-11T13:17:48;4.60;1.00
1391;DHT22;690;51.454;7.194;2022-12-11T13:20:17;4.70;1.00
1391;DHT22;690;51.454;7.194;2022-12-11T13:22:54;4.60;1.00
1391;DHT22;690;51.454;7.194;2022-12-11T13:25:26;4.60;1.00
1391;DHT22;690;51.454;7.194;2022-12-11T13:28:04;4.60;1.00
1391;DHT22;690;51.454;7.194;2022-12-11T13:30:31;4.60;1.00
1391;DHT22;690;51.454;7.194;2022-12-11T13:33:02;4.50;1.00
1391;DHT22;690;51.454;7.194;2022-12-11T13:35:29;4.50;1.00
1391;DHT22;690;51.454;7.194;2022-12-11T13:38:02;4.50;1.00
1391;DHT22;690;51.454;7.194;2022-12-11T13:40:36;4.50;1.00
1391;DHT22;690;51.454;7.194;2022-12-11T13:43:06;4.50;1.00
1391;DHT22;690;51.454;7.194;2022-12-11T13:45:38;4.60;1.00
1391;DHT22;690;51.454;7.194;2022-12-11T13:48:17;4.60;1.00
1391;DHT22;690;51.454;7.194;2022-12-11T13:50:45;4.60;1.00
1391;DHT22;690;51.454;7.194;2022-12-11T13:53:16;4.60;1.00
1391;DHT22;690;51.454;7.194;2022-12-11T13:55:44;4.60;1.00
1391;DHT22;690;51.454;7.194;2022-12-11T13:58:16;4.60;1.00
1391;DHT22;690;51.454;7.194;2022-12-11T14:00:53;4.60;1.00
1391;DHT22;690;51.454;7.194;2022-12-11T14:03:22;4.60;1.00
1391;DHT22;690;51.454;7.194;2022-12-11T14:05:49;4.50;1.00
1391;DHT22;690;51.454;7.194;2022-12-11T14:08:21;4.60;1.00
1391;DHT22;690;51.454;7.194;2022-12-11T14:10:51;4.60;1.00
1391;DHT22;690;51.454;7.194;2022-12-11T14:13:22;4.60;1.00
1391;DHT22;690;51.454;7.194;2022-12-11T14:15:49;4.60;1.00
1391;DHT22;690;51.454;7.194;2022-12-11T14:18:20;4.60;1.00
1391;DHT22;690;51.454;7.194;2022-12-11T14:20:53;4.60;1.00
1391;DHT22;690;51.454;7.194;2022-12-11T14:23:22;4.60;1.00
1391;DHT22;690;51.454;7.194;2022-12-11T14:25:53;4.50;1.00
1391;DHT22;690;51.454;7.194;2022-12-11T14:28:21;4.60;1.00
1391;DHT22;690;51.454;7.194;2022-12-11T14:30:53;4.60;1.00
1391;DHT22;690;51.454;7.194;2022-12-11T14:33:22;4.60;1.00
1391;DHT22;690;51.454;7.194;2022-12-11T14:35:51;4.60;1.00
1391;DHT22;690;51.454;7.194;2022-12-11T14:38:23;4.70;1.00
1391;DHT22;690;51.454;7.194;2022-12-11T14:40:55;4.70;1.00
1391;DHT22;690;51.454;7.194;2022-12-11T14:43:27;4.70;1.00
1391;DHT22;690;51.454;7.194;2022-12-11T14:45:59;4.70;1.00
1391;DHT22;690;51.454;7.194;2022-12-11T14:48:30;4.70;1.00
1391;DHT22;690;51.454;7.194;2022-12-11T14:51:02;4.70;1.00
1391;DHT22;690;51.454;7.194;2022-12-11T14:53:35;4.70;1.00
1391;DHT22;690;51.454;7.194;2022-12-11T14:56:05;4.70;1.00
1391;DHT22;690;51.454;7.194;2022-12-11T14:58:37;4.70;1.00
1391;DHT22;690;51.454;7.194;2022-12-11T15:01:20;4.70;1.00
1391;DHT22;690;51.454;7.194;2022-12-11T15:03:47;4.60;1.00
1391;DHT22;690;51.454;7.194;2022-12-11T15:06:26;4.60;1.00
1391;DHT22;690;51.454;7.194;2022-12-11T15:08:55;4.60;1.00
1391;DHT22;690;51.454;7.194;2022-12-11T15:11:23;4.70;1.00
1391;DHT22;690;51.454;7.194;2022-12-11T15:13:57;4.60;1.00
1391;DHT22;690;51.454;7.194;2022-12-11T15:16:26;4.60;1.00
1391;DHT22;690;51.454;7.194;2022-12-11T15:18:54;4.60;1.00
1391;DHT22;690;51.454;7.194;2022-12-11T15:21:28;4.60;1.00
1391;DHT22;690;51.454;7.194;2022-12-11T15:23:58;4.60;1.00
1391;DHT22;690;51.454;7.194;2022-12-11T15:26:33;4.60;1.00
1391;DHT22;690;51.454;7.194;2022-12-11T15:29:02;4.60;1.00
1391;DHT22;690;51.454;7.194;2022-12-11T15:31:31;4.60;1.00
1391;DHT22;690;51.454;7.194;2022-12-11T15:34:00;4.60;1.00
1391;DHT22;690;51.454;7.194;2022-12-11T15:36:31;4.60;1.00
1391;DHT22;690;51.454;7.194;2022-12-11T15:39:02;4.60;1.00
1391;DHT22;690;51.454;7.194;2022-12-11T15:41:30;4.60;1.00
1391;DHT22;690;51.454;7.194;2022-12-11T15:44:01;4.60;1.00
1391;DHT22;690;51.454;7.194;2022-12-11T15:46:28;4.60;1.00
1391;DHT22;690;51.454;7.194;2022-12-11T15:48:56;4.60;1.00
1391;DHT22;690;51.454;7.194;2022-12-11T15:51:23;4.60;1.00
1391;DHT22;690;51.454;7.194;2022-12-11T15:53:52;4.60;1.00
1391;DHT22;690;51.454;7.194;2022-12-11T15:56:20;4.60;1.00
1391;DHT22;690;51.454;7.194;2022-12-11T15:58:47;4.50;1.00
1391;DHT22;690;51.454;7.194;2022-12-11T16:01:14;4.50;1.00
1391;DHT22;690;51.454;7.194;2022-12-11T16:03:41;4.50;1.00
1391;DHT22;690;51.454;7.194;2022-12-11T16:06:11;4.60;1.00
1391;DHT22;690;51.454;7.194;2022-12-11T16:08:38;4.60;1.00
1391;DHT22;690;51.454;7.194;2022-12-11T16:11:05;4.60;1.00
1391;DHT22;690;51.454;7.194;2022-12-11T16:13:33;4.50;1.00
1391;DHT22;690;51.454;7.194;2022-12-11T16:16:00;4.50;1.00
1391;DHT22;690;51.454;7.194;2022-12-11T16:18:26;4.50;1.00
1391;DHT22;690;51.454;7.194;2022-12-11T16:20:53;4.50;1.00
1391;DHT22;690;51.454;7.194;2022-12-11T16:23:20;4.50;1.00
1391;DHT22;690;51.454;7.194;2022-12-11T16:25:48;4.50;1.00
1391;DHT22;690;51.454;7.194;2022-12-11T16:28:17;4.50;1.00
1391;DHT22;690;51.454;7.194;2022-12-11T16:30:46;4.50;1.00
1391;DHT22;690;51.454;7.194;2022-12-11T16:33:14;4.50;1.00
1391;DHT22;690;51.454;7.194;2022-12-11T16:35:41;4.50;1.00
1391;DHT22;690;51.454;7.194;2022-12-11T16:38:08;4.50;1.00
1391;DHT22;690;51.454;7.194;2022-12-11T16:40:35;4.50;1.00
1391;DHT22;690;51.454;7.194;2022-12-11T16:43:02;4.60;1.00
1391;DHT22;690;51.454;7.194;2022-12-11T16:45:29;4.50;1.00
1391;DHT22;690;51.454;7.194;2022-12-11T16:48:01;4.60;1.00
1391;DHT22;690;51.454;7.194;2022-12-11T16:50:28;4.50;1.00
1391;DHT22;690;51.454;7.194;2022-12-11T16:52:56;4.50;1.00
1391;DHT22;690;51.454;7.194;2022-12-11T16:55:23;4.50;1.00
1391;DHT22;690;51.454;7.194;2022-12-11T16:58:01;4.50;1.00
1391;DHT22;690;51.454;7.194;2022-12-11T17:00:28;4.50;1.00
1391;DHT22;690;51.454;7.194;2022-12-11T17:02:55;4.40;1.00
1391;DHT22;690;51.454;7.194;2022-12-11T17:05:25;4.40;1.00